createdAt,value
2019-01-09T00:00:48.451Z,3.80
2019-01-09T00:03:17.549Z,3.10
2019-01-09T00:05:46.334Z,3.00
2019-01-09T00:08:15.162Z,3.30
2019-01-09T00:10:44.156Z,3.70
2019-01-09T00:13:12.844Z,3.87
2019-01-09T00:15:42.092Z,2.90
2019-01-09T00:18:10.818Z,4.60
2019-01-09T00:20:39.664Z,3.83
2019-01-09T00:23:08.312Z,4.30
2019-01-09T00:25:37.136Z,3.50
2019-01-09T00:28:05.865Z,3.13
2019-01-09T00:30:34.573Z,2.30
2019-01-09T00:33:03.906Z,3.37
2019-01-09T00:35:37.311Z,3.77
2019-01-09T00:38:03.422Z,3.50
2019-01-09T00:40:32.618Z,4.20
2019-01-09T00:43:01.453Z,4.33
2019-01-09T00:45:30.195Z,3.83
2019-01-09T00:47:58.914Z,4.47
2019-01-09T00:50:27.768Z,4.20
2019-01-09T00:52:56.554Z,2.47
2019-01-09T00:55:25.338Z,3.57
2019-01-09T00:57:54.381Z,3.33
2019-01-09T01:00:23.158Z,3.67
2019-01-09T01:03:11.406Z,3.10
2019-01-09T01:06:04.538Z,3.90
2019-01-09T01:08:54.095Z,3.10
2019-01-09T01:11:40.593Z,3.03
2019-01-09T01:14:29.944Z,2.97
2019-01-09T01:17:11.083Z,4.60
2019-01-09T01:19:48.327Z,4.53
2019-01-09T01:22:28.888Z,3.50
2019-01-09T01:25:37.303Z,2.50
2019-01-09T01:28:17.994Z,3.60
2019-01-09T01:30:52.488Z,3.00
2019-01-09T01:33:33.011Z,4.87
2019-01-09T01:36:28.487Z,2.53
2019-01-09T01:39:18.261Z,3.10
2019-01-09T01:41:55.645Z,3.83
2019-01-09T01:44:33.114Z,3.30
2019-01-09T01:47:10.857Z,3.60
2019-01-09T01:49:51.571Z,3.03
2019-01-09T01:52:39.600Z,3.57
2019-01-09T01:55:20.310Z,3.80
2019-01-09T01:58:07.242Z,3.00
2019-01-09T02:00:41.761Z,2.30
2019-01-09T02:03:19.662Z,3.27
2019-01-09T02:05:54.389Z,3.53
2019-01-09T02:08:31.889Z,2.67
2019-01-09T02:11:15.922Z,3.87
2019-01-09T02:13:59.638Z,2.73
2019-01-09T02:17:05.105Z,1.97
2019-01-09T02:19:42.521Z,2.50
2019-01-09T02:22:30.894Z,2.70
2019-01-09T02:25:11.260Z,2.93
2019-01-09T02:27:42.953Z,2.20
2019-01-09T02:30:20.679Z,2.40
2019-01-09T02:32:49.332Z,2.47
2019-01-09T02:35:17.977Z,3.07
2019-01-09T02:37:46.667Z,1.80
2019-01-09T02:40:15.386Z,2.20
2019-01-09T02:42:44.005Z,3.43
2019-01-09T02:45:13.147Z,2.10
2019-01-09T02:47:41.825Z,3.07
2019-01-09T02:50:10.635Z,2.10
2019-01-09T02:52:39.377Z,2.50
2019-01-09T02:55:08.168Z,2.50
2019-01-09T02:57:36.804Z,2.80
2019-01-09T03:00:08.637Z,2.90
2019-01-09T03:02:37.245Z,2.80
2019-01-09T03:05:06.368Z,1.73
2019-01-09T03:07:35.522Z,1.97
2019-01-09T03:10:05.410Z,2.10
2019-01-09T03:12:34.071Z,3.07
2019-01-09T03:15:02.903Z,2.47
2019-01-09T03:17:31.641Z,2.87
2019-01-09T03:20:00.431Z,1.97
2019-01-09T03:22:29.457Z,2.10
2019-01-09T03:24:58.199Z,2.07
2019-01-09T03:27:27.348Z,1.80
2019-01-09T03:29:56.048Z,1.90
2019-01-09T03:32:25.236Z,1.77
2019-01-09T03:34:54.824Z,2.53
2019-01-09T03:37:23.827Z,2.50
2019-01-09T03:39:52.903Z,2.63
2019-01-09T03:42:22.070Z,1.93
2019-01-09T03:44:51.190Z,1.90
2019-01-09T03:47:19.911Z,1.83
2019-01-09T03:49:48.516Z,2.43
2019-01-09T03:52:17.158Z,2.33
2019-01-09T03:54:47.722Z,1.67
2019-01-09T03:57:16.220Z,1.53
2019-01-09T03:59:45.246Z,2.37
2019-01-09T04:02:13.915Z,1.67
2019-01-09T04:04:43.098Z,1.90
2019-01-09T04:07:11.762Z,2.57
2019-01-09T04:09:40.359Z,2.10
2019-01-09T04:12:09.378Z,1.90
2019-01-09T04:14:38.039Z,1.60
2019-01-09T04:17:06.767Z,2.23
2019-01-09T04:19:35.330Z,1.80
2019-01-09T04:22:03.987Z,2.30
2019-01-09T04:24:32.561Z,2.20
2019-01-09T04:27:01.324Z,1.73
2019-01-09T04:29:30.039Z,1.80
2019-01-09T04:31:58.829Z,2.40
2019-01-09T04:34:27.743Z,1.80
2019-01-09T04:36:56.744Z,1.40
2019-01-09T04:39:25.642Z,1.60
2019-01-09T04:41:54.384Z,1.90
2019-01-09T04:44:23.522Z,1.73
2019-01-09T04:46:52.120Z,1.57
2019-01-09T04:49:20.693Z,1.83
2019-01-09T04:51:49.298Z,1.80
2019-01-09T04:54:18.462Z,2.03
2019-01-09T04:56:47.057Z,2.80
2019-01-09T04:59:15.705Z,2.60
2019-01-09T05:01:44.778Z,2.43
2019-01-09T05:04:13.472Z,2.03
2019-01-09T05:06:42.296Z,1.77
2019-01-09T05:09:10.935Z,2.40
2019-01-09T05:11:39.824Z,2.30
2019-01-09T05:14:08.505Z,2.37
2019-01-09T05:16:37.531Z,3.47
2019-01-09T05:19:06.337Z,1.60
2019-01-09T05:21:34.965Z,2.50
2019-01-09T05:24:03.654Z,3.57
2019-01-09T05:26:32.851Z,1.93
2019-01-09T05:29:01.433Z,2.50
2019-01-09T05:31:30.123Z,2.30
2019-01-09T05:33:59.139Z,2.57
2019-01-09T05:36:27.837Z,1.90
2019-01-09T05:38:56.475Z,1.50
2019-01-09T05:41:25.265Z,2.10
2019-01-09T05:43:53.947Z,2.57
2019-01-09T05:46:22.633Z,2.10
2019-01-09T05:48:51.345Z,2.67
2019-01-09T05:51:19.936Z,2.00
2019-01-09T05:53:48.788Z,2.10
2019-01-09T05:56:17.485Z,2.70
2019-01-09T05:58:46.200Z,1.97
2019-01-09T06:01:14.986Z,2.50
2019-01-09T06:03:43.543Z,2.90
2019-01-09T06:06:12.311Z,2.00
2019-01-09T06:08:41.097Z,2.17
2019-01-09T06:11:09.787Z,2.87
2019-01-09T06:13:38.512Z,3.00
2019-01-09T06:16:07.144Z,3.50
2019-01-09T06:18:35.811Z,2.40
2019-01-09T06:21:04.566Z,2.60
2019-01-09T06:23:33.229Z,2.60
2019-01-09T06:26:01.986Z,3.27
2019-01-09T06:28:30.678Z,2.17
2019-01-09T06:30:59.390Z,2.50
2019-01-09T06:33:28.040Z,1.80
2019-01-09T06:35:57.180Z,2.47
2019-01-09T06:38:26.174Z,2.30
2019-01-09T06:40:56.488Z,2.27
2019-01-09T06:43:25.384Z,2.30
2019-01-09T06:45:55.923Z,2.97
2019-01-09T06:48:24.312Z,2.43
2019-01-09T06:50:53.285Z,2.03
2019-01-09T06:53:22.341Z,2.93
2019-01-09T06:55:51.058Z,3.20
2019-01-09T06:58:20.298Z,2.53
2019-01-09T07:00:49.198Z,2.70
2019-01-09T07:03:17.908Z,2.20
2019-01-09T07:05:46.514Z,2.77
2019-01-09T07:08:15.192Z,2.60
2019-01-09T07:10:44.165Z,2.40
2019-01-09T07:13:13.179Z,2.60
2019-01-09T07:15:41.921Z,3.00
2019-01-09T07:18:10.933Z,3.50
2019-01-09T07:20:39.697Z,2.87
2019-01-09T07:23:08.437Z,4.20
2019-01-09T07:25:37.623Z,2.50
2019-01-09T07:28:06.373Z,2.60
2019-01-09T07:30:35.300Z,3.40
2019-01-09T07:33:03.969Z,2.40
2019-01-09T07:35:32.739Z,3.07
2019-01-09T07:38:01.924Z,3.70
2019-01-09T07:40:30.598Z,2.70
2019-01-09T07:42:59.392Z,2.53
2019-01-09T07:45:28.061Z,5.53
2019-01-09T07:47:57.010Z,4.03
2019-01-09T07:50:25.752Z,3.23
2019-01-09T07:52:54.586Z,3.27
2019-01-09T07:55:23.327Z,2.60
2019-01-09T07:57:52.057Z,2.60
2019-01-09T08:00:20.745Z,3.10
2019-01-09T08:02:49.526Z,3.87
2019-01-09T08:05:18.089Z,3.90
2019-01-09T08:07:53.872Z,3.00
2019-01-09T08:10:17.275Z,2.83
2019-01-09T08:12:46.060Z,3.00
2019-01-09T08:15:14.769Z,3.60
2019-01-09T08:17:43.642Z,2.60
2019-01-09T08:20:12.317Z,2.90
2019-01-09T08:22:40.950Z,3.03
2019-01-09T08:25:11.412Z,3.13
2019-01-09T08:27:40.121Z,3.37
2019-01-09T08:30:10.538Z,3.07
2019-01-09T08:32:39.325Z,3.17
2019-01-09T08:35:08.313Z,3.17
2019-01-09T08:37:37.013Z,3.23
2019-01-09T08:40:08.799Z,4.00
2019-01-09T08:42:37.479Z,3.13
2019-01-09T08:45:07.356Z,3.60
2019-01-09T08:47:36.039Z,4.20
2019-01-09T08:50:06.659Z,3.30
2019-01-09T08:52:35.404Z,3.50
2019-01-09T08:55:04.721Z,2.83
2019-01-09T08:57:33.310Z,2.60
2019-01-09T09:00:02.369Z,2.80
2019-01-09T09:02:31.009Z,2.70
2019-01-09T09:04:59.694Z,3.97
2019-01-09T09:07:28.935Z,3.57
2019-01-09T09:09:57.622Z,3.30
2019-01-09T09:12:26.713Z,3.30
2019-01-09T09:14:55.763Z,2.70
2019-01-09T09:17:24.498Z,2.47
2019-01-09T09:19:53.083Z,2.57
2019-01-09T09:22:21.827Z,3.80
2019-01-09T09:24:50.478Z,2.60
2019-01-09T09:27:19.743Z,2.93
2019-01-09T09:29:48.269Z,3.67
2019-01-09T09:32:17.268Z,3.50
2019-01-09T09:34:46.301Z,2.70
2019-01-09T09:37:15.269Z,2.87
2019-01-09T09:39:45.874Z,3.20
2019-01-09T09:42:14.370Z,2.63
2019-01-09T09:44:43.149Z,3.87
2019-01-09T09:47:11.803Z,3.77
2019-01-09T09:49:40.845Z,3.50
2019-01-09T09:52:09.611Z,3.10
2019-01-09T09:54:38.647Z,3.70
2019-01-09T09:57:07.327Z,3.00
2019-01-09T09:59:36.307Z,3.90
2019-01-09T10:02:05.063Z,3.90
2019-01-09T10:04:34.304Z,4.10
2019-01-09T10:07:02.989Z,4.17
2019-01-09T10:09:31.732Z,3.53
2019-01-09T10:12:00.463Z,3.30
2019-01-09T10:14:29.403Z,3.30
2019-01-09T10:16:58.092Z,3.37
2019-01-09T10:19:26.762Z,3.47
2019-01-09T10:21:55.795Z,5.00
2019-01-09T10:24:24.549Z,3.40
2019-01-09T10:26:54.279Z,4.23
2019-01-09T10:29:23.128Z,3.57
2019-01-09T10:31:51.849Z,3.93
2019-01-09T10:34:20.666Z,3.20
2019-01-09T10:36:49.766Z,3.50
2019-01-09T10:39:18.502Z,2.90
2019-01-09T10:41:47.234Z,3.83
2019-01-09T10:44:18.917Z,4.23
2019-01-09T10:46:46.294Z,3.13
2019-01-09T10:49:14.980Z,3.23
2019-01-09T10:51:43.709Z,2.97
2019-01-09T10:54:12.346Z,3.90
2019-01-09T10:56:41.096Z,3.30
2019-01-09T10:59:11.349Z,3.53
2019-01-09T11:01:40.289Z,4.30
2019-01-09T11:04:09.136Z,3.73
2019-01-09T11:06:37.918Z,5.67
2019-01-09T11:09:07.571Z,3.93
2019-01-09T11:11:36.314Z,2.80
2019-01-09T11:14:05.531Z,3.00
2019-01-09T11:16:34.295Z,3.60
2019-01-09T11:19:03.017Z,3.50
2019-01-09T11:21:32.119Z,2.87
2019-01-09T11:24:01.214Z,3.37
2019-01-09T11:26:30.919Z,2.90
2019-01-09T11:28:59.500Z,3.10
2019-01-09T11:31:28.117Z,3.03
2019-01-09T11:33:56.846Z,2.47
2019-01-09T11:36:25.611Z,2.80
2019-01-09T11:38:55.965Z,2.03
2019-01-09T11:41:24.821Z,2.93
2019-01-09T11:43:53.848Z,3.27
2019-01-09T11:46:22.701Z,2.87
2019-01-09T11:48:51.362Z,2.67
2019-01-09T11:51:20.009Z,2.40
2019-01-09T11:53:48.608Z,2.83
2019-01-09T11:56:17.604Z,3.10
2019-01-09T11:58:46.581Z,3.17
2019-01-09T12:01:15.368Z,3.23
2019-01-09T12:03:44.210Z,2.83
2019-01-09T12:06:12.808Z,2.17
2019-01-09T12:08:41.501Z,3.47
2019-01-09T12:11:10.092Z,2.47
2019-01-09T12:13:38.948Z,2.07
2019-01-09T12:16:08.374Z,2.50
2019-01-09T12:18:37.695Z,2.10
2019-01-09T12:21:16.276Z,2.80
2019-01-09T12:23:36.759Z,2.43
2019-01-09T12:26:05.439Z,2.30
2019-01-09T12:28:34.420Z,2.97
2019-01-09T12:31:03.575Z,3.10
2019-01-09T12:33:32.217Z,2.70
2019-01-09T12:36:00.942Z,2.37
2019-01-09T12:38:29.583Z,2.73
2019-01-09T12:40:58.311Z,2.07
2019-01-09T12:43:26.980Z,2.40
2019-01-09T12:45:55.635Z,2.43
2019-01-09T12:48:24.466Z,2.33
2019-01-09T12:50:53.158Z,1.80
2019-01-09T12:53:21.932Z,2.23
2019-01-09T12:55:50.574Z,1.90
2019-01-09T12:58:19.320Z,1.97
2019-01-09T13:00:47.944Z,1.63
2019-01-09T13:03:17.037Z,2.73
2019-01-09T13:05:45.767Z,1.87
2019-01-09T13:08:14.504Z,2.13
2019-01-09T13:10:43.202Z,2.13
2019-01-09T13:13:11.811Z,1.87
2019-01-09T13:15:40.504Z,2.13
2019-01-09T13:18:09.115Z,2.37
2019-01-09T13:20:37.855Z,2.03
2019-01-09T13:23:06.501Z,1.90
2019-01-09T13:25:35.106Z,1.73
2019-01-09T13:28:03.925Z,2.00
2019-01-09T13:30:32.666Z,2.03
2019-01-09T13:33:01.351Z,1.90
2019-01-09T13:35:30.490Z,2.93
2019-01-09T13:37:59.196Z,1.37
2019-01-09T13:40:27.920Z,2.20
2019-01-09T13:42:56.576Z,2.20
2019-01-09T13:45:25.718Z,1.87
2019-01-09T13:47:54.449Z,2.40
2019-01-09T13:50:23.189Z,1.70
2019-01-09T13:52:51.951Z,1.87
2019-01-09T13:55:20.840Z,1.97
2019-01-09T13:57:49.523Z,2.27
2019-01-09T14:00:20.571Z,3.07
2019-01-09T14:02:49.396Z,1.83
2019-01-09T14:05:18.137Z,2.17
2019-01-09T14:07:47.175Z,1.73
2019-01-09T14:10:18.729Z,1.83
2019-01-09T14:12:47.465Z,1.50
2019-01-09T14:15:18.612Z,2.20
2019-01-09T14:17:47.564Z,2.23
2019-01-09T14:20:16.403Z,1.90
2019-01-09T14:22:46.774Z,1.93
2019-01-09T14:25:16.902Z,2.27
2019-01-09T14:27:46.072Z,1.37
2019-01-09T14:30:23.660Z,1.87
2019-01-09T14:32:52.638Z,1.80
2019-01-09T14:35:21.366Z,2.63
2019-01-09T14:37:50.081Z,2.30
2019-01-09T14:40:19.898Z,1.80
2019-01-09T14:42:48.675Z,1.53
2019-01-09T14:45:18.303Z,1.90
2019-01-09T14:47:47.067Z,1.53
2019-01-09T14:50:20.239Z,1.80
2019-01-09T14:52:48.987Z,1.77
2019-01-09T14:55:17.711Z,1.40
2019-01-09T14:57:46.748Z,2.00
2019-01-09T15:00:18.357Z,1.40
2019-01-09T15:02:47.199Z,1.90
2019-01-09T15:05:16.262Z,2.00
2019-01-09T15:07:45.002Z,3.03
2019-01-09T15:10:16.537Z,2.17
2019-01-09T15:12:45.376Z,1.67
2019-01-09T15:15:16.340Z,2.70
2019-01-09T15:17:45.252Z,1.70
2019-01-09T15:20:16.433Z,1.93
2019-01-09T15:22:46.291Z,1.93
2019-01-09T15:25:16.280Z,1.83
2019-01-09T15:27:45.398Z,1.30
2019-01-09T15:30:19.630Z,1.83
2019-01-09T15:32:49.236Z,2.67
2019-01-09T15:35:18.032Z,2.53
2019-01-09T15:37:46.868Z,2.70
2019-01-09T15:40:21.649Z,1.87
2019-01-09T15:42:50.995Z,2.30
2019-01-09T15:45:19.826Z,1.87
2019-01-09T15:47:48.561Z,1.80
2019-01-09T15:50:21.840Z,1.83
2019-01-09T15:52:50.585Z,1.70
2019-01-09T15:55:19.475Z,1.80
2019-01-09T15:57:50.427Z,2.17
2019-01-09T16:00:37.385Z,2.03
2019-01-09T16:03:06.484Z,2.37
2019-01-09T16:05:35.251Z,2.70
2019-01-09T16:08:04.189Z,2.10
2019-01-09T16:10:33.292Z,2.63
2019-01-09T16:13:01.971Z,2.20
2019-01-09T16:15:30.819Z,1.80
2019-01-09T16:17:59.652Z,2.20
2019-01-09T16:20:28.337Z,2.80
2019-01-09T16:22:57.107Z,1.60
2019-01-09T16:25:26.137Z,1.50
2019-01-09T16:27:55.061Z,2.20
2019-01-09T16:30:33.921Z,2.20
2019-01-09T16:32:57.065Z,1.90
2019-01-09T16:35:26.077Z,1.80
2019-01-09T16:37:54.722Z,2.20
2019-01-09T16:40:23.774Z,1.90
2019-01-09T16:42:52.822Z,2.67
2019-01-09T16:45:21.895Z,1.97
2019-01-09T16:47:50.580Z,2.17
2019-01-09T16:50:23.510Z,2.03
2019-01-09T16:52:52.127Z,1.80
2019-01-09T16:55:20.869Z,2.13
2019-01-09T16:57:49.719Z,1.93
2019-01-09T17:00:27.515Z,2.30
2019-01-09T17:02:56.347Z,2.37
2019-01-09T17:05:25.034Z,2.63
2019-01-09T17:07:54.127Z,2.30
2019-01-09T17:10:31.895Z,1.97
2019-01-09T17:12:53.399Z,1.90
2019-01-09T17:15:22.432Z,3.07
2019-01-09T17:17:51.044Z,2.60
2019-01-09T17:20:30.895Z,2.63
2019-01-09T17:22:59.712Z,2.70
2019-01-09T17:25:30.199Z,2.80
2019-01-09T17:27:59.427Z,2.73
2019-01-09T17:30:32.405Z,2.77
2019-01-09T17:33:01.143Z,2.37
2019-01-09T17:35:30.292Z,1.40
2019-01-09T17:37:58.973Z,2.23
2019-01-09T17:40:27.804Z,2.27
2019-01-09T17:42:56.541Z,2.17
2019-01-09T17:45:25.285Z,2.70
2019-01-09T17:47:54.019Z,2.30
2019-01-09T17:50:34.306Z,2.10
2019-01-09T17:53:03.399Z,1.90
2019-01-09T17:55:32.493Z,2.80
2019-01-09T17:58:01.254Z,2.30
2019-01-09T18:00:33.342Z,2.30
2019-01-09T18:03:02.554Z,2.80
2019-01-09T18:05:31.257Z,2.60
2019-01-09T18:07:59.986Z,2.90
2019-01-09T18:10:28.920Z,3.00
2019-01-09T18:12:57.759Z,2.90
2019-01-09T18:15:27.000Z,2.80
2019-01-09T18:17:56.045Z,3.40
2019-01-09T18:20:24.827Z,3.30
2019-01-09T18:22:53.572Z,2.30
2019-01-09T18:25:24.429Z,3.20
2019-01-09T18:27:53.199Z,3.20
2019-01-09T18:30:30.737Z,2.60
2019-01-09T18:33:02.406Z,3.40
2019-01-09T18:35:36.104Z,3.10
2019-01-09T18:38:24.755Z,3.20
2019-01-09T18:41:17.910Z,3.20
2019-01-09T18:44:07.848Z,2.60
2019-01-09T18:46:55.882Z,3.03
2019-01-09T18:49:45.720Z,2.67
2019-01-09T18:52:23.336Z,3.60
2019-01-09T18:54:52.124Z,3.03
2019-01-09T18:57:21.321Z,4.50
2019-01-09T18:59:50.398Z,2.57
2019-01-09T19:02:19.435Z,2.90
2019-01-09T19:04:48.556Z,3.13
2019-01-09T19:07:17.301Z,3.20
2019-01-09T19:09:46.175Z,2.90
2019-01-09T19:12:14.809Z,2.63
2019-01-09T19:14:43.599Z,2.50
2019-01-09T19:17:12.945Z,3.07
2019-01-09T19:19:41.730Z,2.47
2019-01-09T19:22:10.595Z,2.63
2019-01-09T19:24:39.360Z,3.53
2019-01-09T19:27:08.194Z,2.73
2019-01-09T19:29:37.383Z,2.20
2019-01-09T19:32:06.590Z,3.30
2019-01-09T19:34:35.283Z,3.13
2019-01-09T19:37:04.115Z,3.93
2019-01-09T19:39:32.868Z,3.10
2019-01-09T19:42:01.487Z,3.00
2019-01-09T19:44:30.275Z,2.33
2019-01-09T19:46:59.369Z,4.20
2019-01-09T19:49:28.027Z,2.10
2019-01-09T19:51:56.781Z,2.60
2019-01-09T19:54:25.846Z,2.50
2019-01-09T19:56:54.878Z,2.40
2019-01-09T19:59:25.218Z,2.87
2019-01-09T20:01:54.362Z,3.50
2019-01-09T20:04:23.119Z,2.13
2019-01-09T20:06:51.808Z,2.87
2019-01-09T20:09:20.638Z,2.47
2019-01-09T20:11:49.439Z,2.83
2019-01-09T20:14:18.128Z,2.40
2019-01-09T20:16:46.774Z,3.10
2019-01-09T20:19:15.477Z,2.80
2019-01-09T20:21:44.264Z,2.60
2019-01-09T20:24:13.096Z,3.23
2019-01-09T20:26:41.980Z,2.77
2019-01-09T20:29:10.837Z,2.40
2019-01-09T20:31:40.111Z,3.30
2019-01-09T20:34:08.907Z,2.53
2019-01-09T20:36:37.584Z,2.57
2019-01-09T20:39:08.115Z,3.63
2019-01-09T20:41:36.993Z,2.10
2019-01-09T20:44:06.395Z,3.77
2019-01-09T20:46:35.661Z,2.77
2019-01-09T20:49:04.784Z,2.50
2019-01-09T20:51:33.906Z,3.07
2019-01-09T20:54:02.878Z,2.37
2019-01-09T20:56:31.966Z,2.57
2019-01-09T20:59:01.185Z,3.20
2019-01-09T21:01:30.135Z,2.93
2019-01-09T21:03:59.393Z,2.70
2019-01-09T21:06:28.123Z,2.70
2019-01-09T21:08:59.613Z,2.97
2019-01-09T21:11:28.293Z,3.43
2019-01-09T21:13:57.184Z,2.50
2019-01-09T21:16:25.794Z,2.60
2019-01-09T21:18:54.588Z,3.00
2019-01-09T21:21:23.704Z,3.70
2019-01-09T21:23:52.535Z,3.57
2019-01-09T21:26:21.377Z,3.30
2019-01-09T21:28:50.493Z,2.50
2019-01-09T21:31:19.711Z,2.30
2019-01-09T21:33:48.863Z,2.80
2019-01-09T21:36:17.613Z,2.60
2019-01-09T21:38:46.255Z,2.50
2019-01-09T21:41:15.125Z,3.67
2019-01-09T21:43:44.057Z,2.93
2019-01-09T21:46:12.679Z,3.03
2019-01-09T21:48:41.528Z,2.90
2019-01-09T21:51:10.166Z,3.00
2019-01-09T21:53:39.098Z,3.20
2019-01-09T21:56:07.843Z,2.57
2019-01-09T21:58:36.934Z,2.47
2019-01-09T22:01:05.723Z,3.10
2019-01-09T22:03:34.449Z,3.47
2019-01-09T22:06:03.190Z,4.57
2019-01-09T22:08:31.818Z,2.60
2019-01-09T22:11:00.661Z,4.33
2019-01-09T22:13:31.774Z,3.23
2019-01-09T22:16:00.284Z,3.97
2019-01-09T22:18:29.070Z,2.93
2019-01-09T22:20:57.761Z,3.20
2019-01-09T22:23:26.977Z,3.87
2019-01-09T22:25:55.847Z,3.80
2019-01-09T22:28:25.064Z,3.80
2019-01-09T22:30:53.809Z,4.77
2019-01-09T22:33:22.507Z,4.50
2019-01-09T22:35:51.395Z,4.20
2019-01-09T22:38:20.286Z,4.30
2019-01-09T22:40:49.014Z,4.30
2019-01-09T22:43:17.700Z,4.00
2019-01-09T22:45:46.846Z,4.90
2019-01-09T22:48:15.576Z,4.67
2019-01-09T22:50:44.333Z,5.00
2019-01-09T22:53:13.747Z,3.90
2019-01-09T22:55:44.360Z,5.33
2019-01-09T22:58:12.981Z,4.27
2019-01-09T23:00:48.127Z,4.90
2019-01-09T23:03:17.003Z,4.97
2019-01-09T23:05:45.866Z,5.13
2019-01-09T23:08:14.623Z,4.37
2019-01-09T23:10:43.362Z,4.53
2019-01-09T23:13:12.445Z,4.60
2019-01-09T23:15:41.712Z,5.40
2019-01-09T23:18:10.542Z,5.60
2019-01-09T23:20:39.178Z,5.57
2019-01-09T23:23:08.280Z,4.77
2019-01-09T23:25:37.198Z,5.67
2019-01-09T23:28:06.018Z,6.00
2019-01-09T23:30:35.044Z,5.10
2019-01-09T23:33:04.165Z,5.30
2019-01-09T23:35:32.903Z,4.90
2019-01-09T23:38:02.044Z,4.13
2019-01-09T23:40:30.852Z,4.40
2019-01-09T23:42:59.592Z,4.97
2019-01-09T23:45:28.424Z,5.03
2019-01-09T23:47:57.210Z,5.00
2019-01-09T23:50:25.996Z,3.93
2019-01-09T23:52:54.837Z,4.20
2019-01-09T23:55:23.631Z,3.43
2019-01-09T23:57:52.310Z,4.00
